sensor_id;sensor_type;location;lat;lon;timestamp;temperature;humidity
52609;DHT22;38503;48.544;12.142;2023-02-03T00:01:50;4.10;99.90
52609;DHT22;38503;48.544;12.142;2023-02-03T00:04:17;4.10;99.90
52609;DHT22;38503;48.544;12.142;2023-02-03T00:06:44;4.10;99.90
52609;DHT22;38503;48.544;12.142;2023-02-03T00:09:11;4.10;99.90
52609;DHT22;38503;48.544;12.142;2023-02-03T00:11:38;4.10;99.90
52609;DHT22;38503;48.544;12.142;2023-02-03T00:14:05;4.10;99.90
52609;DHT22;38503;48.544;12.142;2023-02-03T00:16:34;4.10;99.90
52609;DHT22;38503;48.544;12.142;2023-02-03T00:19:01;4.10;99.90
52609;DHT22;38503;48.544;12.142;2023-02-03T00:21:28;4.10;99.90
52609;DHT22;38503;48.544;12.142;2023-02-03T00:23:54;4.20;99.90
52609;DHT22;38503;48.544;12.142;2023-02-03T00:26:21;4.10;99.90
52609;DHT22;38503;48.544;12.142;2023-02-03T00:28:49;4.10;99.90
52609;DHT22;38503;48.544;12.142;2023-02-03T00:31:21;4.10;99.90
52609;DHT22;38503;48.544;12.142;2023-02-03T00:33:55;4.20;99.90
52609;DHT22;38503;48.544;12.142;2023-02-03T00:36:24;4.10;99.90
52609;DHT22;38503;48.544;12.142;2023-02-03T00:38:51;4.10;99.90
52609;DHT22;38503;48.544;12.142;2023-02-03T00:41:18;4.20;99.90
52609;DHT22;38503;48.544;12.142;2023-02-03T00:43:46;4.20;99.90
52609;DHT22;38503;48.544;12.142;2023-02-03T00:46:13;4.20;99.90
52609;DHT22;38503;48.544;12.142;2023-02-03T00:48:40;4.20;99.90
52609;DHT22;38503;48.544;12.142;2023-02-03T00:51:06;4.20;99.90
52609;DHT22;38503;48.544;12.142;2023-02-03T00:53:33;4.20;99.90
52609;DHT22;38503;48.544;12.142;2023-02-03T00:56:00;4.20;99.90
52609;DHT22;38503;48.544;12.142;2023-02-03T00:58:27;4.20;99.90
52609;DHT22;38503;48.544;12.142;2023-02-03T01:00:55;4.20;99.90
52609;DHT22;38503;48.544;12.142;2023-02-03T01:03:22;4.20;99.90
52609;DHT22;38503;48.544;12.142;2023-02-03T01:05:49;4.10;99.90
52609;DHT22;38503;48.544;12.142;2023-02-03T01:08:16;4.20;99.90
52609;DHT22;38503;48.544;12.142;2023-02-03T01:10:43;4.20;99.90
52609;DHT22;38503;48.544;12.142;2023-02-03T01:13:10;4.20;99.90
52609;DHT22;38503;48.544;12.142;2023-02-03T01:15:36;4.20;99.90
52609;DHT22;38503;48.544;12.142;2023-02-03T01:18:03;4.20;99.90
52609;DHT22;38503;48.544;12.142;2023-02-03T01:20:30;4.20;99.90
52609;DHT22;38503;48.544;12.142;2023-02-03T01:22:57;4.20;99.90
52609;DHT22;38503;48.544;12.142;2023-02-03T01:25:23;4.20;99.90
52609;DHT22;38503;48.544;12.142;2023-02-03T01:27:50;4.20;99.90
52609;DHT22;38503;48.544;12.142;2023-02-03T01:30:17;4.20;99.90
52609;DHT22;38503;48.544;12.142;2023-02-03T01:32:44;4.10;99.90
52609;DHT22;38503;48.544;12.142;2023-02-03T01:35:11;4.10;99.90
52609;DHT22;38503;48.544;12.142;2023-02-03T01:37:38;4.20;99.90
52609;DHT22;38503;48.544;12.142;2023-02-03T01:40:05;4.10;99.90
52609;DHT22;38503;48.544;12.142;2023-02-03T01:42:32;4.10;99.90
52609;DHT22;38503;48.544;12.142;2023-02-03T01:44:59;4.10;99.90
52609;DHT22;38503;48.544;12.142;2023-02-03T01:47:38;4.10;99.90
52609;DHT22;38503;48.544;12.142;2023-02-03T01:52:43;4.10;99.90
52609;DHT22;38503;48.544;12.142;2023-02-03T01:55:14;4.10;99.90
52609;DHT22;38503;48.544;12.142;2023-02-03T01:58:10;4.10;99.90
52609;DHT22;38503;48.544;12.142;2023-02-03T02:00:38;4.00;99.90
52609;DHT22;38503;48.544;12.142;2023-02-03T02:03:06;4.00;99.90
52609;DHT22;38503;48.544;12.142;2023-02-03T02:05:55;4.10;99.90
52609;DHT22;38503;48.544;12.142;2023-02-03T02:08:23;4.10;99.90
52609;DHT22;38503;48.544;12.142;2023-02-03T02:10:51;4.10;99.90
52609;DHT22;38503;48.544;12.142;2023-02-03T02:13:19;4.10;99.90
52609;DHT22;38503;48.544;12.142;2023-02-03T02:16:09;4.10;99.90
52609;DHT22;38503;48.544;12.142;2023-02-03T02:19:11;4.10;99.90
52609;DHT22;38503;48.544;12.142;2023-02-03T02:36:35;4.20;99.90
52609;DHT22;38503;48.544;12.142;2023-02-03T02:42:00;4.20;99.90
52609;DHT22;38503;48.544;12.142;2023-02-03T02:44:44;4.20;99.90
52609;DHT22;38503;48.544;12.142;2023-02-03T02:47:19;4.20;99.90
52609;DHT22;38503;48.544;12.142;2023-02-03T02:52:33;4.20;99.90
52609;DHT22;38503;48.544;12.142;2023-02-03T02:55:08;4.20;99.90
52609;DHT22;38503;48.544;12.142;2023-02-03T02:57:36;4.20;99.90
52609;DHT22;38503;48.544;12.142;2023-02-03T03:00:05;4.20;99.90
52609;DHT22;38503;48.544;12.142;2023-02-03T03:02:34;4.20;99.90
52609;DHT22;38503;48.544;12.142;2023-02-03T03:05:03;4.20;99.90
52609;DHT22;38503;48.544;12.142;2023-02-03T03:07:35;4.20;99.90
52609;DHT22;38503;48.544;12.142;2023-02-03T03:10:09;4.10;99.90
52609;DHT22;38503;48.544;12.142;2023-02-03T03:12:43;4.20;99.90
52609;DHT22;38503;48.544;12.142;2023-02-03T03:15:14;4.20;99.90
52609;DHT22;38503;48.544;12.142;2023-02-03T03:17:48;4.20;99.90
52609;DHT22;38503;48.544;12.142;2023-02-03T03:20:20;4.20;99.90
52609;DHT22;38503;48.544;12.142;2023-02-03T03:22:58;4.20;99.90
52609;DHT22;38503;48.544;12.142;2023-02-03T03:25:36;4.20;99.90
52609;DHT22;38503;48.544;12.142;2023-02-03T03:28:09;4.20;99.90
52609;DHT22;38503;48.544;12.142;2023-02-03T03:30:38;4.20;99.90
52609;DHT22;38503;48.544;12.142;2023-02-03T03:33:06;4.20;99.90
52609;DHT22;38503;48.544;12.142;2023-02-03T03:35:59;4.30;99.90
52609;DHT22;38503;48.544;12.142;2023-02-03T03:38:40;4.30;99.90
52609;DHT22;38503;48.544;12.142;2023-02-03T03:41:14;4.30;99.90
52609;DHT22;38503;48.544;12.142;2023-02-03T03:43:44;4.30;99.90
52609;DHT22;38503;48.544;12.142;2023-02-03T03:46:16;4.30;99.90
52609;DHT22;38503;48.544;12.142;2023-02-03T03:48:56;4.30;99.90
52609;DHT22;38503;48.544;12.142;2023-02-03T03:54:00;4.40;99.90
52609;DHT22;38503;48.544;12.142;2023-02-03T03:56:38;4.40;99.90
52609;DHT22;38503;48.544;12.142;2023-02-03T03:59:07;4.40;99.90
52609;DHT22;38503;48.544;12.142;2023-02-03T04:01:37;4.40;99.90
52609;DHT22;38503;48.544;12.142;2023-02-03T04:04:07;4.50;99.90
52609;DHT22;38503;48.544;12.142;2023-02-03T04:06:37;4.50;99.90
52609;DHT22;38503;48.544;12.142;2023-02-03T04:09:04;4.50;99.90
52609;DHT22;38503;48.544;12.142;2023-02-03T04:11:31;4.50;99.90
52609;DHT22;38503;48.544;12.142;2023-02-03T04:14:18;4.50;99.90
52609;DHT22;38503;48.544;12.142;2023-02-03T04:16:45;4.50;99.90
52609;DHT22;38503;48.544;12.142;2023-02-03T04:19:11;4.50;99.90
52609;DHT22;38503;48.544;12.142;2023-02-03T04:21:38;4.60;99.90
52609;DHT22;38503;48.544;12.142;2023-02-03T04:24:05;4.60;99.90
52609;DHT22;38503;48.544;12.142;2023-02-03T04:26:32;4.60;99.90
52609;DHT22;38503;48.544;12.142;2023-02-03T04:28:59;4.50;99.90
52609;DHT22;38503;48.544;12.142;2023-02-03T04:31:26;4.60;99.90
52609;DHT22;38503;48.544;12.142;2023-02-03T04:33:53;4.60;99.90
52609;DHT22;38503;48.544;12.142;2023-02-03T04:36:20;4.60;99.90
52609;DHT22;38503;48.544;12.142;2023-02-03T04:38:50;4.60;99.90
52609;DHT22;38503;48.544;12.142;2023-02-03T04:41:17;4.60;99.90
52609;DHT22;38503;48.544;12.142;2023-02-03T04:43:43;4.60;99.90
52609;DHT22;38503;48.544;12.142;2023-02-03T04:46:10;4.60;99.90
52609;DHT22;38503;48.544;12.142;2023-02-03T04:48:37;4.60;99.90
52609;DHT22;38503;48.544;12.142;2023-02-03T04:51:06;4.60;99.90
52609;DHT22;38503;48.544;12.142;2023-02-03T04:53:34;4.60;99.90
52609;DHT22;38503;48.544;12.142;2023-02-03T04:56:01;4.60;99.90
52609;DHT22;38503;48.544;12.142;2023-02-03T04:58:28;4.60;99.90
52609;DHT22;38503;48.544;12.142;2023-02-03T05:00:54;4.60;99.90
52609;DHT22;38503;48.544;12.142;2023-02-03T05:03:21;4.60;99.90
52609;DHT22;38503;48.544;12.142;2023-02-03T05:05:51;4.60;99.90
52609;DHT22;38503;48.544;12.142;2023-02-03T05:08:18;4.60;99.90
52609;DHT22;38503;48.544;12.142;2023-02-03T05:10:45;4.50;99.90
52609;DHT22;38503;48.544;12.142;2023-02-03T05:13:12;4.60;99.90
52609;DHT22;38503;48.544;12.142;2023-02-03T05:15:39;4.60;99.90
52609;DHT22;38503;48.544;12.142;2023-02-03T05:18:05;4.60;99.90
52609;DHT22;38503;48.544;12.142;2023-02-03T05:20:32;4.60;99.90
52609;DHT22;38503;48.544;12.142;2023-02-03T05:22:59;4.70;99.90
52609;DHT22;38503;48.544;12.142;2023-02-03T05:25:26;4.70;99.90
52609;DHT22;38503;48.544;12.142;2023-02-03T05:27:53;4.70;99.90
52609;DHT22;38503;48.544;12.142;2023-02-03T05:30:20;4.70;99.90
52609;DHT22;38503;48.544;12.142;2023-02-03T05:32:48;4.70;99.90
52609;DHT22;38503;48.544;12.142;2023-02-03T05:35:15;4.70;99.90
52609;DHT22;38503;48.544;12.142;2023-02-03T05:37:44;4.70;99.90
52609;DHT22;38503;48.544;12.142;2023-02-03T05:40:12;4.70;99.90
52609;DHT22;38503;48.544;12.142;2023-02-03T05:42:57;4.70;99.90
52609;DHT22;38503;48.544;12.142;2023-02-03T05:45:24;4.80;99.90
52609;DHT22;38503;48.544;12.142;2023-02-03T05:47:51;4.80;99.90
52609;DHT22;38503;48.544;12.142;2023-02-03T05:50:17;4.80;99.90
52609;DHT22;38503;48.544;12.142;2023-02-03T05:52:44;4.80;99.90
52609;DHT22;38503;48.544;12.142;2023-02-03T05:55:11;4.80;99.90
52609;DHT22;38503;48.544;12.142;2023-02-03T05:57:38;4.80;99.90
52609;DHT22;38503;48.544;12.142;2023-02-03T06:00:05;4.80;99.90
52609;DHT22;38503;48.544;12.142;2023-02-03T06:02:33;4.80;99.90
52609;DHT22;38503;48.544;12.142;2023-02-03T06:04:59;4.80;99.90
52609;DHT22;38503;48.544;12.142;2023-02-03T06:07:26;4.80;99.90
52609;DHT22;38503;48.544;12.142;2023-02-03T06:09:53;4.80;99.90
52609;DHT22;38503;48.544;12.142;2023-02-03T06:12:19;4.80;99.90
52609;DHT22;38503;48.544;12.142;2023-02-03T06:14:46;4.80;99.90
52609;DHT22;38503;48.544;12.142;2023-02-03T06:17:13;4.80;99.90
52609;DHT22;38503;48.544;12.142;2023-02-03T06:19:40;4.80;99.90
52609;DHT22;38503;48.544;12.142;2023-02-03T06:22:06;4.80;99.90
52609;DHT22;38503;48.544;12.142;2023-02-03T06:24:33;4.80;99.90
52609;DHT22;38503;48.544;12.142;2023-02-03T06:27:00;4.80;99.90
52609;DHT22;38503;48.544;12.142;2023-02-03T06:29:27;4.80;99.90
52609;DHT22;38503;48.544;12.142;2023-02-03T06:31:53;4.80;99.90
52609;DHT22;38503;48.544;12.142;2023-02-03T06:34:20;4.80;99.90
52609;DHT22;38503;48.544;12.142;2023-02-03T06:36:47;4.80;99.90
52609;DHT22;38503;48.544;12.142;2023-02-03T06:39:14;4.80;99.90
52609;DHT22;38503;48.544;12.142;2023-02-03T06:41:41;4.80;99.90
52609;DHT22;38503;48.544;12.142;2023-02-03T06:44:08;4.80;99.90
52609;DHT22;38503;48.544;12.142;2023-02-03T06:46:35;4.80;99.90
52609;DHT22;38503;48.544;12.142;2023-02-03T06:49:02;4.80;99.90
52609;DHT22;38503;48.544;12.142;2023-02-03T06:51:29;4.80;99.90
52609;DHT22;38503;48.544;12.142;2023-02-03T06:53:55;4.80;99.90
52609;DHT22;38503;48.544;12.142;2023-02-03T06:56:24;4.80;99.90
52609;DHT22;38503;48.544;12.142;2023-02-03T06:58:51;4.90;99.90
52609;DHT22;38503;48.544;12.142;2023-02-03T07:01:17;4.80;99.90
52609;DHT22;38503;48.544;12.142;2023-02-03T07:03:44;4.80;99.90
52609;DHT22;38503;48.544;12.142;2023-02-03T07:06:13;4.90;99.90
52609;DHT22;38503;48.544;12.142;2023-02-03T07:08:39;4.90;99.90
52609;DHT22;38503;48.544;12.142;2023-02-03T07:11:07;4.90;99.90
52609;DHT22;38503;48.544;12.142;2023-02-03T07:13:34;4.80;99.90
52609;DHT22;38503;48.544;12.142;2023-02-03T07:16:01;4.80;99.90
52609;DHT22;38503;48.544;12.142;2023-02-03T07:18:28;4.80;99.90
52609;DHT22;38503;48.544;12.142;2023-02-03T07:21:13;4.80;99.90
52609;DHT22;38503;48.544;12.142;2023-02-03T07:23:40;4.80;99.90
52609;DHT22;38503;48.544;12.142;2023-02-03T07:26:09;4.90;99.90
52609;DHT22;38503;48.544;12.142;2023-02-03T07:28:36;4.90;99.90
52609;DHT22;38503;48.544;12.142;2023-02-03T07:31:03;4.90;99.90
52609;DHT22;38503;48.544;12.142;2023-02-03T07:33:30;4.90;99.90
52609;DHT22;38503;48.544;12.142;2023-02-03T07:35:58;4.90;99.90
52609;DHT22;38503;48.544;12.142;2023-02-03T07:38:26;4.90;99.90
52609;DHT22;38503;48.544;12.142;2023-02-03T07:40:53;4.90;99.90
52609;DHT22;38503;48.544;12.142;2023-02-03T07:43:20;4.90;99.90
52609;DHT22;38503;48.544;12.142;2023-02-03T07:45:47;4.90;99.90
52609;DHT22;38503;48.544;12.142;2023-02-03T07:48:14;4.90;99.90
52609;DHT22;38503;48.544;12.142;2023-02-03T07:50:41;5.00;99.90
52609;DHT22;38503;48.544;12.142;2023-02-03T07:53:08;5.00;99.90
52609;DHT22;38503;48.544;12.142;2023-02-03T07:55:37;5.00;99.90
52609;DHT22;38503;48.544;12.142;2023-02-03T07:58:05;5.10;99.90
52609;DHT22;38503;48.544;12.142;2023-02-03T08:00:32;5.10;99.90
52609;DHT22;38503;48.544;12.142;2023-02-03T08:02:59;5.10;99.90
52609;DHT22;38503;48.544;12.142;2023-02-03T08:05:26;5.10;99.90
52609;DHT22;38503;48.544;12.142;2023-02-03T08:07:53;5.10;99.90
52609;DHT22;38503;48.544;12.142;2023-02-03T08:10:20;5.10;99.90
52609;DHT22;38503;48.544;12.142;2023-02-03T08:12:47;5.20;99.90
52609;DHT22;38503;48.544;12.142;2023-02-03T08:15:14;5.20;99.90
52609;DHT22;38503;48.544;12.142;2023-02-03T08:17:40;5.20;99.90
52609;DHT22;38503;48.544;12.142;2023-02-03T08:20:08;5.20;99.90
52609;DHT22;38503;48.544;12.142;2023-02-03T08:22:36;5.30;99.90
52609;DHT22;38503;48.544;12.142;2023-02-03T08:25:03;5.30;99.90
52609;DHT22;38503;48.544;12.142;2023-02-03T08:27:31;5.40;99.90
52609;DHT22;38503;48.544;12.142;2023-02-03T08:29:59;5.40;99.90
52609;DHT22;38503;48.544;12.142;2023-02-03T08:32:26;5.30;99.90
52609;DHT22;38503;48.544;12.142;2023-02-03T08:34:53;5.30;99.90
52609;DHT22;38503;48.544;12.142;2023-02-03T08:37:22;5.30;99.90
52609;DHT22;38503;48.544;12.142;2023-02-03T08:39:51;5.30;99.90
52609;DHT22;38503;48.544;12.142;2023-02-03T08:42:18;5.40;99.90
52609;DHT22;38503;48.544;12.142;2023-02-03T08:44:46;5.40;99.90
52609;DHT22;38503;48.544;12.142;2023-02-03T08:47:15;5.50;99.90
52609;DHT22;38503;48.544;12.142;2023-02-03T08:49:44;5.50;99.90
52609;DHT22;38503;48.544;12.142;2023-02-03T08:52:11;5.50;99.90
52609;DHT22;38503;48.544;12.142;2023-02-03T08:54:39;5.50;99.90
52609;DHT22;38503;48.544;12.142;2023-02-03T08:57:06;5.50;99.90
52609;DHT22;38503;48.544;12.142;2023-02-03T08:59:33;5.60;99.90
52609;DHT22;38503;48.544;12.142;2023-02-03T09:02:04;5.60;99.90
52609;DHT22;38503;48.544;12.142;2023-02-03T09:04:33;5.60;99.90
52609;DHT22;38503;48.544;12.142;2023-02-03T09:07:00;5.60;99.90
52609;DHT22;38503;48.544;12.142;2023-02-03T09:09:30;5.50;99.90
52609;DHT22;38503;48.544;12.142;2023-02-03T09:11:57;5.60;99.90
52609;DHT22;38503;48.544;12.142;2023-02-03T09:14:33;5.50;99.90
52609;DHT22;38503;48.544;12.142;2023-02-03T09:17:02;5.50;99.90
52609;DHT22;38503;48.544;12.142;2023-02-03T09:19:29;5.60;99.90
52609;DHT22;38503;48.544;12.142;2023-02-03T09:21:56;5.60;99.90
52609;DHT22;38503;48.544;12.142;2023-02-03T09:24:24;5.60;99.90
52609;DHT22;38503;48.544;12.142;2023-02-03T09:26:51;5.70;99.90
52609;DHT22;38503;48.544;12.142;2023-02-03T09:29:18;5.70;99.90
52609;DHT22;38503;48.544;12.142;2023-02-03T09:31:45;5.70;99.90
52609;DHT22;38503;48.544;12.142;2023-02-03T09:34:14;5.70;99.90
52609;DHT22;38503;48.544;12.142;2023-02-03T09:36:43;5.70;99.90
52609;DHT22;38503;48.544;12.142;2023-02-03T09:39:10;5.70;99.90
52609;DHT22;38503;48.544;12.142;2023-02-03T09:44:35;5.70;99.90
52609;DHT22;38503;48.544;12.142;2023-02-03T09:47:16;5.80;99.90
52609;DHT22;38503;48.544;12.142;2023-02-03T09:49:49;5.80;99.90
52609;DHT22;38503;48.544;12.142;2023-02-03T09:52:52;5.80;99.90
52609;DHT22;38503;48.544;12.142;2023-02-03T09:58:12;5.70;99.90
52609;DHT22;38503;48.544;12.142;2023-02-03T10:00:50;5.80;99.90
52609;DHT22;38503;48.544;12.142;2023-02-03T10:12:05;6.00;99.90
52609;DHT22;38503;48.544;12.142;2023-02-03T10:15:02;6.00;99.90
52609;DHT22;38503;48.544;12.142;2023-02-03T10:17:42;6.10;99.90
52609;DHT22;38503;48.544;12.142;2023-02-03T10:20:35;6.10;99.90
52609;DHT22;38503;48.544;12.142;2023-02-03T10:23:13;6.10;99.90
52609;DHT22;38503;48.544;12.142;2023-02-03T10:25:50;6.10;99.90
52609;DHT22;38503;48.544;12.142;2023-02-03T10:28:29;6.10;99.90
52609;DHT22;38503;48.544;12.142;2023-02-03T10:30:59;6.20;99.90
52609;DHT22;38503;48.544;12.142;2023-02-03T10:33:29;6.20;99.90
52609;DHT22;38503;48.544;12.142;2023-02-03T10:36:22;6.30;99.90
52609;DHT22;38503;48.544;12.142;2023-02-03T10:41:32;6.30;99.90
52609;DHT22;38503;48.544;12.142;2023-02-03T10:44:02;6.30;99.90
52609;DHT22;38503;48.544;12.142;2023-02-03T10:46:33;6.30;99.90
52609;DHT22;38503;48.544;12.142;2023-02-03T10:49:00;6.30;99.90
52609;DHT22;38503;48.544;12.142;2023-02-03T10:54:00;6.30;99.90
52609;DHT22;38503;48.544;12.142;2023-02-03T10:56:34;6.30;99.90
52609;DHT22;38503;48.544;12.142;2023-02-03T10:59:02;6.30;99.90
52609;DHT22;38503;48.544;12.142;2023-02-03T11:01:44;6.30;99.90
52609;DHT22;38503;48.544;12.142;2023-02-03T11:04:30;6.20;99.90
52609;DHT22;38503;48.544;12.142;2023-02-03T11:07:00;6.20;99.90
52609;DHT22;38503;48.544;12.142;2023-02-03T11:09:33;6.20;99.90
52609;DHT22;38503;48.544;12.142;2023-02-03T11:12:21;6.20;99.90
52609;DHT22;38503;48.544;12.142;2023-02-03T11:14:52;6.10;99.90
52609;DHT22;38503;48.544;12.142;2023-02-03T11:17:24;6.20;99.90
52609;DHT22;38503;48.544;12.142;2023-02-03T11:20:02;6.20;99.90
52609;DHT22;38503;48.544;12.142;2023-02-03T11:22:37;6.20;99.90
52609;DHT22;38503;48.544;12.142;2023-02-03T11:25:19;6.20;99.90
52609;DHT22;38503;48.544;12.142;2023-02-03T11:27:46;6.20;99.90
52609;DHT22;38503;48.544;12.142;2023-02-03T11:30:19;6.20;99.90
52609;DHT22;38503;48.544;12.142;2023-02-03T11:32:50;6.30;99.90
52609;DHT22;38503;48.544;12.142;2023-02-03T11:35:25;6.30;99.90
52609;DHT22;38503;48.544;12.142;2023-02-03T11:37:57;6.30;99.90
52609;DHT22;38503;48.544;12.142;2023-02-03T11:47:55;6.40;99.90
52609;DHT22;38503;48.544;12.142;2023-02-03T11:50:36;6.30;99.90
52609;DHT22;38503;48.544;12.142;2023-02-03T11:53:31;6.40;99.90
52609;DHT22;38503;48.544;12.142;2023-02-03T12:04:25;6.60;99.90
52609;DHT22;38503;48.544;12.142;2023-02-03T12:07:27;6.60;99.90
52609;DHT22;38503;48.544;12.142;2023-02-03T12:26:20;6.60;99.90
52609;DHT22;38503;48.544;12.142;2023-02-03T12:29:05;6.60;99.90
52609;DHT22;38503;48.544;12.142;2023-02-03T12:34:34;6.70;99.90
52609;DHT22;38503;48.544;12.142;2023-02-03T12:37:16;6.80;99.90
52609;DHT22;38503;48.544;12.142;2023-02-03T12:39:54;6.70;99.90
52609;DHT22;38503;48.544;12.142;2023-02-03T12:42:34;6.60;99.90
52609;DHT22;38503;48.544;12.142;2023-02-03T12:45:23;6.60;99.90
52609;DHT22;38503;48.544;12.142;2023-02-03T12:47:59;6.60;99.90
52609;DHT22;38503;48.544;12.142;2023-02-03T12:50:39;6.60;99.90
52609;DHT22;38503;48.544;12.142;2023-02-03T12:53:20;6.60;99.90
52609;DHT22;38503;48.544;12.142;2023-02-03T12:56:14;6.60;99.90
52609;DHT22;38503;48.544;12.142;2023-02-03T12:59:03;6.60;99.90
52609;DHT22;38503;48.544;12.142;2023-02-03T13:01:40;6.70;99.90
52609;DHT22;38503;48.544;12.142;2023-02-03T13:04:28;6.60;99.90
52609;DHT22;38503;48.544;12.142;2023-02-03T13:07:16;6.70;99.90
52609;DHT22;38503;48.544;12.142;2023-02-03T13:09:53;6.70;99.90
52609;DHT22;38503;48.544;12.142;2023-02-03T13:12:40;6.70;99.90
52609;DHT22;38503;48.544;12.142;2023-02-03T13:18:06;6.60;99.90
52609;DHT22;38503;48.544;12.142;2023-02-03T13:20:36;6.70;99.90
52609;DHT22;38503;48.544;12.142;2023-02-03T13:23:11;6.70;99.90
52609;DHT22;38503;48.544;12.142;2023-02-03T13:26:17;6.60;99.90
52609;DHT22;38503;48.544;12.142;2023-02-03T13:31:39;6.60;99.90
52609;DHT22;38503;48.544;12.142;2023-02-03T13:36:47;6.80;99.90
52609;DHT22;38503;48.544;12.142;2023-02-03T13:42:12;6.70;99.90
52609;DHT22;38503;48.544;12.142;2023-02-03T13:44:45;6.70;99.90
52609;DHT22;38503;48.544;12.142;2023-02-03T13:47:25;6.60;99.90
52609;DHT22;38503;48.544;12.142;2023-02-03T13:49:58;6.60;99.90
52609;DHT22;38503;48.544;12.142;2023-02-03T13:55:39;6.70;99.90
52609;DHT22;38503;48.544;12.142;2023-02-03T13:58:24;6.80;99.90
52609;DHT22;38503;48.544;12.142;2023-02-03T14:05:56;6.70;99.90
52609;DHT22;38503;48.544;12.142;2023-02-03T14:16:46;6.70;99.90
52609;DHT22;38503;48.544;12.142;2023-02-03T14:24:39;6.80;99.90
52609;DHT22;38503;48.544;12.142;2023-02-03T14:27:26;6.80;99.90
52609;DHT22;38503;48.544;12.142;2023-02-03T14:30:12;6.80;99.90
52609;DHT22;38503;48.544;12.142;2023-02-03T14:35:22;6.90;99.90
52609;DHT22;38503;48.544;12.142;2023-02-03T14:37:57;6.90;99.90
52609;DHT22;38503;48.544;12.142;2023-02-03T14:40:55;6.90;99.90
52609;DHT22;38503;48.544;12.142;2023-02-03T14:50:01;6.90;99.90
52609;DHT22;38503;48.544;12.142;2023-02-03T14:55:24;6.80;99.90
52609;DHT22;38503;48.544;12.142;2023-02-03T14:58:01;6.80;99.90
52609;DHT22;38503;48.544;12.142;2023-02-03T15:00:32;6.80;99.90
52609;DHT22;38503;48.544;12.142;2023-02-03T15:05:36;6.80;99.90
52609;DHT22;38503;48.544;12.142;2023-02-03T15:08:04;6.80;99.90
52609;DHT22;38503;48.544;12.142;2023-02-03T15:10:51;6.80;99.90
52609;DHT22;38503;48.544;12.142;2023-02-03T15:13:27;6.90;99.90
52609;DHT22;38503;48.544;12.142;2023-02-03T15:15:59;6.90;99.90
52609;DHT22;38503;48.544;12.142;2023-02-03T15:18:33;6.90;99.90
52609;DHT22;38503;48.544;12.142;2023-02-03T15:21:03;6.90;99.90
52609;DHT22;38503;48.544;12.142;2023-02-03T15:23:41;6.90;99.90
52609;DHT22;38503;48.544;12.142;2023-02-03T15:26:19;6.90;99.90
52609;DHT22;38503;48.544;12.142;2023-02-03T15:29:00;6.90;99.90
52609;DHT22;38503;48.544;12.142;2023-02-03T15:31:43;6.80;99.90
52609;DHT22;38503;48.544;12.142;2023-02-03T15:34:35;6.90;99.90
52609;DHT22;38503;48.544;12.142;2023-02-03T15:37:17;6.90;99.90
52609;DHT22;38503;48.544;12.142;2023-02-03T15:42:35;6.90;99.90
52609;DHT22;38503;48.544;12.142;2023-02-03T15:48:03;6.90;99.90
52609;DHT22;38503;48.544;12.142;2023-02-03T15:50:50;6.90;99.90
52609;DHT22;38503;48.544;12.142;2023-02-03T15:53:29;6.90;99.90
52609;DHT22;38503;48.544;12.142;2023-02-03T15:56:34;6.90;99.90
52609;DHT22;38503;48.544;12.142;2023-02-03T15:59:04;6.90;99.90
52609;DHT22;38503;48.544;12.142;2023-02-03T16:01:32;6.80;99.90
52609;DHT22;38503;48.544;12.142;2023-02-03T16:03:59;6.80;99.90
52609;DHT22;38503;48.544;12.142;2023-02-03T16:06:33;6.80;99.90
52609;DHT22;38503;48.544;12.142;2023-02-03T16:09:22;6.80;99.90
52609;DHT22;38503;48.544;12.142;2023-02-03T16:12:04;6.70;99.90
52609;DHT22;38503;48.544;12.142;2023-02-03T16:14:38;6.70;99.90
52609;DHT22;38503;48.544;12.142;2023-02-03T16:17:05;6.60;99.90
52609;DHT22;38503;48.544;12.142;2023-02-03T16:19:45;6.70;99.90
52609;DHT22;38503;48.544;12.142;2023-02-03T16:22:28;6.60;99.90
52609;DHT22;38503;48.544;12.142;2023-02-03T16:25:19;6.50;99.90
52609;DHT22;38503;48.544;12.142;2023-02-03T16:33:38;6.40;99.90
52609;DHT22;38503;48.544;12.142;2023-02-03T16:36:23;6.40;99.90
52609;DHT22;38503;48.544;12.142;2023-02-03T16:39:11;6.40;99.90
52609;DHT22;38503;48.544;12.142;2023-02-03T16:41:58;6.30;99.90
52609;DHT22;38503;48.544;12.142;2023-02-03T16:44:44;6.40;99.90
52609;DHT22;38503;48.544;12.142;2023-02-03T16:47:30;6.30;99.90
52609;DHT22;38503;48.544;12.142;2023-02-03T16:50:21;6.40;99.90
52609;DHT22;38503;48.544;12.142;2023-02-03T16:53:15;6.30;99.90
52609;DHT22;38503;48.544;12.142;2023-02-03T16:55:42;6.40;99.90
52609;DHT22;38503;48.544;12.142;2023-02-03T16:58:09;6.30;99.90
52609;DHT22;38503;48.544;12.142;2023-02-03T17:00:39;6.40;99.90
52609;DHT22;38503;48.544;12.142;2023-02-03T17:03:12;6.40;99.90
52609;DHT22;38503;48.544;12.142;2023-02-03T17:05:41;6.30;99.90
52609;DHT22;38503;48.544;12.142;2023-02-03T17:08:12;6.40;99.90
52609;DHT22;38503;48.544;12.142;2023-02-03T17:10:41;6.40;99.90
52609;DHT22;38503;48.544;12.142;2023-02-03T17:13:09;6.40;99.90
52609;DHT22;38503;48.544;12.142;2023-02-03T17:15:45;6.40;99.90
52609;DHT22;38503;48.544;12.142;2023-02-03T17:18:13;6.30;99.90
52609;DHT22;38503;48.544;12.142;2023-02-03T17:20:44;6.30;99.90
52609;DHT22;38503;48.544;12.142;2023-02-03T17:23:11;6.20;99.90
52609;DHT22;38503;48.544;12.142;2023-02-03T17:25:39;6.20;99.90
52609;DHT22;38503;48.544;12.142;2023-02-03T17:28:07;6.00;99.90
52609;DHT22;38503;48.544;12.142;2023-02-03T17:30:34;6.10;99.90
52609;DHT22;38503;48.544;12.142;2023-02-03T17:33:03;6.10;99.90
52609;DHT22;38503;48.544;12.142;2023-02-03T17:35:44;6.10;99.90
52609;DHT22;38503;48.544;12.142;2023-02-03T17:38:12;5.90;99.90
52609;DHT22;38503;48.544;12.142;2023-02-03T17:40:41;5.80;99.90
52609;DHT22;38503;48.544;12.142;2023-02-03T17:43:27;5.80;99.90
52609;DHT22;38503;48.544;12.142;2023-02-03T17:46:15;5.80;99.90
52609;DHT22;38503;48.544;12.142;2023-02-03T17:49:00;5.80;99.90
52609;DHT22;38503;48.544;12.142;2023-02-03T17:51:44;5.80;99.90
52609;DHT22;38503;48.544;12.142;2023-02-03T17:54:29;5.80;99.90
52609;DHT22;38503;48.544;12.142;2023-02-03T17:56:56;5.80;99.90
52609;DHT22;38503;48.544;12.142;2023-02-03T17:59:22;5.80;99.90
52609;DHT22;38503;48.544;12.142;2023-02-03T18:01:49;5.70;99.90
52609;DHT22;38503;48.544;12.142;2023-02-03T18:04:16;5.80;99.90
52609;DHT22;38503;48.544;12.142;2023-02-03T18:06:43;5.80;99.90
52609;DHT22;38503;48.544;12.142;2023-02-03T18:09:10;5.80;99.90
52609;DHT22;38503;48.544;12.142;2023-02-03T18:11:39;5.90;99.90
52609;DHT22;38503;48.544;12.142;2023-02-03T18:14:06;5.90;99.90
52609;DHT22;38503;48.544;12.142;2023-02-03T18:16:34;5.90;99.90
52609;DHT22;38503;48.544;12.142;2023-02-03T18:19:06;5.90;99.90
52609;DHT22;38503;48.544;12.142;2023-02-03T18:21:37;5.80;99.90